createdAt,value
2018-12-12T00:00:08.444Z,93.6
2018-12-12T00:05:07.692Z,93.6
2018-12-12T00:10:07.817Z,93.6
2018-12-12T00:15:08.074Z,93.8
2018-12-12T00:20:07.907Z,93.4
2018-12-12T00:25:08.769Z,94
2018-12-12T00:30:08.088Z,93.5
2018-12-12T00:35:08.028Z,93.7
2018-12-12T00:40:07.798Z,93.9
2018-12-12T00:45:07.981Z,93.9
2018-12-12T00:50:07.842Z,94.2
2018-12-12T00:55:07.849Z,94.2
2018-12-12T01:00:08.112Z,94.1
2018-12-12T01:05:07.805Z,94
2018-12-12T01:10:09.166Z,94.3
2018-12-12T01:15:07.897Z,94.3
2018-12-12T01:20:07.920Z,94.3
2018-12-12T01:25:09.804Z,94.4
2018-12-12T01:30:08.681Z,94.4
2018-12-12T01:35:08.101Z,94.5
2018-12-12T01:40:11.863Z,94.7
2018-12-12T01:45:07.829Z,94.9
2018-12-12T01:50:08.320Z,94.8
2018-12-12T01:55:07.730Z,94.8
2018-12-12T02:00:08.010Z,95
2018-12-12T02:05:07.893Z,95.1
2018-12-12T02:10:09.122Z,95.1
2018-12-12T02:15:07.532Z,95.2
2018-12-12T02:20:08.034Z,95.2
2018-12-12T02:25:08.651Z,94.8
2018-12-12T02:30:07.597Z,94.7
2018-12-12T02:35:08.040Z,95
2018-12-12T02:40:07.569Z,94.9
2018-12-12T02:45:07.817Z,95
2018-12-12T02:50:07.862Z,94.9
2018-12-12T02:55:07.360Z,94.9
2018-12-12T03:00:07.689Z,95.1
2018-12-12T03:05:07.473Z,95.2
2018-12-12T03:10:08.894Z,95.2
2018-12-12T03:15:07.273Z,95.2
2018-12-12T03:20:07.767Z,95.3
2018-12-12T03:25:08.187Z,95.2
2018-12-12T03:30:07.397Z,95.3
2018-12-12T03:35:07.833Z,95.6
2018-12-12T03:40:08.776Z,95.4
2018-12-12T03:45:07.508Z,95.3
2018-12-12T03:50:07.764Z,95.5
2018-12-12T03:55:07.355Z,95.6
2018-12-12T04:00:07.965Z,95.4
2018-12-12T04:05:07.381Z,95.5
2018-12-12T04:10:07.640Z,95.5
2018-12-12T07:35:05.039Z,96.9
2018-12-12T07:40:02.487Z,96.3
2018-12-12T07:45:00.431Z,96.4
2018-12-12T07:50:05.375Z,96.7
2018-12-12T07:55:00.295Z,97.1
2018-12-12T08:00:00.339Z,95.8
2018-12-12T08:05:00.057Z,95.3
2018-12-12T08:10:00.540Z,96
2018-12-12T08:15:00.142Z,95
2018-12-12T08:20:00.370Z,95.6
2018-12-12T08:25:00.302Z,95.5
2018-12-12T08:30:00.368Z,94.1
2018-12-12T08:35:00.187Z,93.4
2018-12-12T08:40:00.124Z,92.9
2018-12-12T08:45:00.042Z,92.7
2018-12-12T08:50:00.347Z,91.6
2018-12-12T08:55:00.120Z,91.7
2018-12-12T09:00:00.140Z,91.6
2018-12-12T09:05:00.271Z,90.4
2018-12-12T09:10:00.213Z,89.7
2018-12-12T09:15:00.407Z,90.2
2018-12-12T09:20:00.296Z,88.3
2018-12-12T09:24:59.934Z,87.7
2018-12-12T09:30:00.046Z,86.8
2018-12-12T09:34:59.928Z,86.3
2018-12-12T09:39:59.952Z,86.1
2018-12-12T09:45:00.377Z,86.8
2018-12-12T09:50:00.007Z,85.4
2018-12-12T09:55:00.077Z,84.6
2018-12-12T10:00:00.068Z,83.3
2018-12-12T10:05:00.122Z,83.1
2018-12-12T10:10:00.185Z,83.2
2018-12-12T10:15:00.056Z,82.1
2018-12-12T10:20:00.092Z,82.1
2018-12-12T10:25:00.179Z,81.9
2018-12-12T10:30:00.481Z,82.2
2018-12-12T10:35:00.366Z,81.4
2018-12-12T10:39:59.915Z,80.7
2018-12-12T10:44:59.902Z,80.2
2018-12-12T10:50:00.336Z,79.6
2018-12-12T10:55:00.045Z,78.1
2018-12-12T11:00:00.179Z,77.5
2018-12-12T11:05:00.720Z,76.6
2018-12-12T11:10:00.014Z,77.1
2018-12-12T11:14:59.795Z,77
2018-12-12T11:20:00.188Z,75.6
2018-12-12T11:25:00.793Z,76
2018-12-12T11:30:00.329Z,74.1
2018-12-12T11:34:59.791Z,74.9
2018-12-12T11:40:00.203Z,74.9
2018-12-12T11:44:59.735Z,75.3
2018-12-12T11:50:00.397Z,77.3
2018-12-12T12:30:05.047Z,76
2018-12-12T12:35:01.095Z,78.5
2018-12-12T12:40:01.657Z,79.1
2018-12-12T12:45:01.546Z,79.5
2018-12-12T12:50:01.421Z,79.3
2018-12-12T12:55:01.454Z,80
2018-12-12T13:00:01.290Z,79.7
2018-12-12T13:05:01.263Z,79.3
2018-12-12T13:10:01.157Z,79.6
2018-12-12T13:15:01.340Z,80.7
2018-12-12T13:20:01.255Z,80
2018-12-12T13:25:01.327Z,79.4
2018-12-12T13:30:01.087Z,79.5
2018-12-12T13:35:01.242Z,78.4
2018-12-12T13:40:01.480Z,77.7
2018-12-12T13:45:01.315Z,77.8
2018-12-12T13:50:01.215Z,76.9
2018-12-12T13:55:01.281Z,77.2
2018-12-12T14:00:01.152Z,76.3
2018-12-12T14:05:01.234Z,76
2018-12-12T14:10:01.263Z,76.2
2018-12-12T14:15:01.268Z,74.2
2018-12-12T14:20:01.229Z,72.3
2018-12-12T14:25:01.129Z,70.8
2018-12-12T14:30:01.304Z,72.8
2018-12-12T14:35:01.097Z,73.2
2018-12-12T14:40:01.063Z,71.8
2018-12-12T14:45:01.105Z,69.9
2018-12-12T14:50:01.366Z,71.7
2018-12-12T14:55:01.007Z,70.9
2018-12-12T15:00:01.234Z,70.7
2018-12-12T15:05:00.834Z,70.6
2018-12-12T15:10:00.885Z,70.2
2018-12-12T15:15:01.124Z,67.4
2018-12-12T15:20:01.050Z,69.5
2018-12-12T15:25:02.025Z,69.3
2018-12-12T15:30:00.871Z,70.7
2018-12-12T15:35:00.842Z,69.8
2018-12-12T15:40:00.833Z,70.1
2018-12-12T15:45:01.137Z,69.2
2018-12-12T15:50:01.135Z,69.3
2018-12-12T15:55:01.093Z,69.6
2018-12-12T16:00:00.999Z,69.2
2018-12-12T16:05:01.610Z,69
2018-12-12T16:10:01.186Z,68.1
2018-12-12T16:15:01.076Z,68.1
2018-12-12T16:20:01.255Z,68.8
2018-12-12T16:25:00.799Z,69.5
2018-12-12T16:30:01.177Z,70.1
2018-12-12T16:35:01.101Z,70.5
2018-12-12T16:40:00.872Z,71.4
2018-12-12T16:45:01.291Z,72.4
2018-12-12T16:50:00.961Z,72.7
2018-12-12T16:55:01.000Z,72.7
2018-12-12T17:00:01.356Z,72.9
2018-12-12T17:05:02.349Z,73.1
2018-12-12T17:10:01.110Z,73.9
2018-12-12T17:15:01.501Z,74.2
2018-12-12T17:20:00.830Z,73.9
2018-12-12T17:25:00.796Z,74.1
2018-12-12T17:30:00.872Z,75.4
2018-12-12T17:35:01.035Z,76
2018-12-12T17:40:00.999Z,76.4
2018-12-12T17:45:00.626Z,77.4
2018-12-12T17:50:01.517Z,78.2
2018-12-12T17:55:00.779Z,78.3
2018-12-12T18:00:01.545Z,79.7
2018-12-12T18:05:00.853Z,80.8
2018-12-12T18:10:00.871Z,81.7
2018-12-12T18:15:01.346Z,83.1
2018-12-12T18:20:00.925Z,85
2018-12-12T18:25:01.938Z,86.3
2018-12-12T18:30:00.970Z,87.6
2018-12-12T18:35:00.652Z,88.3
2018-12-12T18:40:02.423Z,89.1
2018-12-12T18:45:00.872Z,90.2
2018-12-12T18:50:00.952Z,91
2018-12-12T18:55:02.400Z,92.1
2018-12-12T19:00:01.142Z,92.2
2018-12-12T19:05:01.157Z,93.5
2018-12-12T19:10:01.094Z,93.3
2018-12-12T19:15:01.531Z,93.2
2018-12-12T19:20:00.742Z,93.7
2018-12-12T19:25:00.702Z,93.6
2018-12-12T19:30:00.706Z,92.8
2018-12-12T19:35:00.653Z,93.1
2018-12-12T19:40:01.806Z,93.8
2018-12-12T19:45:00.699Z,94.1
2018-12-12T19:50:01.555Z,94
2018-12-12T19:55:00.676Z,94.2
2018-12-12T20:00:00.964Z,93.9
2018-12-12T20:05:01.380Z,94.2
2018-12-12T20:10:02.045Z,94.5
2018-12-12T20:15:00.746Z,94.9
2018-12-12T20:20:00.644Z,94.4
2018-12-12T20:25:02.933Z,94.1
2018-12-12T20:30:01.270Z,93.9
2018-12-12T20:35:00.784Z,94.6
2018-12-12T20:40:01.680Z,94.4
2018-12-12T20:45:00.839Z,94.2
2018-12-12T20:50:00.644Z,94.8
2018-12-12T20:55:00.714Z,94.6
2018-12-12T21:00:00.789Z,94.8
2018-12-12T21:05:00.692Z,94.7
2018-12-12T21:10:01.964Z,94.8
2018-12-12T21:15:00.747Z,94.8
2018-12-12T21:20:00.884Z,95
2018-12-12T21:25:00.565Z,95.3
2018-12-12T21:30:00.492Z,95.2
2018-12-12T21:35:00.511Z,94.7
2018-12-12T21:40:02.346Z,95.8
2018-12-12T21:45:00.515Z,95.6
2018-12-12T21:50:00.829Z,95.9
2018-12-12T21:55:00.453Z,95.5
2018-12-12T22:00:00.946Z,95.6
2018-12-12T22:05:00.689Z,95.6
2018-12-12T22:10:00.549Z,95.4
2018-12-12T22:15:00.865Z,95.4
2018-12-12T22:20:00.432Z,96
2018-12-12T22:25:00.579Z,96
2018-12-12T22:30:00.989Z,96.3
2018-12-12T22:35:00.568Z,96.4
2018-12-12T22:40:00.495Z,96.4
2018-12-12T22:45:00.526Z,97
2018-12-12T22:50:00.545Z,96.5
2018-12-12T22:55:02.398Z,96.7
2018-12-12T23:00:01.280Z,96.6
2018-12-12T23:05:00.809Z,97.1
2018-12-12T23:10:01.274Z,97.7
2018-12-12T23:15:01.099Z,97.8
2018-12-12T23:20:00.546Z,97.8
2018-12-12T23:25:00.337Z,98
2018-12-12T23:30:02.700Z,98.3
2018-12-12T23:35:00.401Z,98.7
2018-12-12T23:40:00.767Z,98.4
2018-12-12T23:45:00.378Z,98.9
2018-12-12T23:50:00.646Z,99.7
2018-12-12T23:55:03.629Z,99.5
